Cozumel, ROO, Mexico
Current Conditions -  °F | °C
As of 5:44 AM on Thursday 30 Oct 2014 (Local Time) from MMCZ Reporting Station
Scattered Clouds Scattered Clouds  
Wind Chill: 73°   Ceiling: Unl
Heat Index: 73°   Visibility: 7mi
Dew Point: 73°   Wind: 3mph
Humidity: 100%   Direction: 30°NNE
Pressure: 29.94"   Gusts: NA
Location:  20.43°N, 86.88°W
Report Text: MMCZ 301144Z 03003KT 7SM SCT015 23/23 A2994 RMK SLP133 57007 959 8/500 CU RTS
Loading
Personal Weather Stations






























Interactive Weather Map
Tropical Storm Tracking
New forecast layout! Learn more

10-Day Weather Forecast

Advertisements
Track Severe Weather on mobile